sensor_id;sensor_type;location;lat;lon;timestamp;temperature;humidity
8858;DHT22;4465;50.904;4.696;2022-12-07T00:01:22;5.60;99.90
8858;DHT22;4465;50.904;4.696;2022-12-07T00:03:52;5.60;99.90
8858;DHT22;4465;50.904;4.696;2022-12-07T00:06:19;5.60;99.90
8858;DHT22;4465;50.904;4.696;2022-12-07T00:08:46;5.60;99.90
8858;DHT22;4465;50.904;4.696;2022-12-07T00:11:18;5.60;99.90
8858;DHT22;4465;50.904;4.696;2022-12-07T00:13:51;5.60;99.90
8858;DHT22;4465;50.904;4.696;2022-12-07T00:16:18;5.50;99.90
8858;DHT22;4465;50.904;4.696;2022-12-07T00:18:50;5.50;99.90
8858;DHT22;4465;50.904;4.696;2022-12-07T00:21:21;5.60;99.90
8858;DHT22;4465;50.904;4.696;2022-12-07T00:23:49;5.50;99.90
8858;DHT22;4465;50.904;4.696;2022-12-07T00:26:20;5.50;99.90
8858;DHT22;4465;50.904;4.696;2022-12-07T00:28:48;5.50;99.90
8858;DHT22;4465;50.904;4.696;2022-12-07T00:31:16;5.50;99.90
8858;DHT22;4465;50.904;4.696;2022-12-07T00:33:43;5.50;99.90
8858;DHT22;4465;50.904;4.696;2022-12-07T00:36:14;5.40;99.90
8858;DHT22;4465;50.904;4.696;2022-12-07T00:38:40;5.40;99.90
8858;DHT22;4465;50.904;4.696;2022-12-07T00:41:13;5.40;99.90
8858;DHT22;4465;50.904;4.696;2022-12-07T00:43:41;5.30;99.90
8858;DHT22;4465;50.904;4.696;2022-12-07T00:46:07;5.30;99.90
8858;DHT22;4465;50.904;4.696;2022-12-07T00:48:33;5.30;99.90
8858;DHT22;4465;50.904;4.696;2022-12-07T00:51:00;5.20;99.90
8858;DHT22;4465;50.904;4.696;2022-12-07T00:53:27;5.20;99.90
8858;DHT22;4465;50.904;4.696;2022-12-07T00:55:55;5.20;99.90
8858;DHT22;4465;50.904;4.696;2022-12-07T00:58:23;5.20;99.90
8858;DHT22;4465;50.904;4.696;2022-12-07T01:00:53;5.20;99.90
8858;DHT22;4465;50.904;4.696;2022-12-07T01:03:19;5.20;99.90
8858;DHT22;4465;50.904;4.696;2022-12-07T01:05:52;5.10;99.90
8858;DHT22;4465;50.904;4.696;2022-12-07T01:08:19;5.20;99.90
8858;DHT22;4465;50.904;4.696;2022-12-07T01:10:45;5.20;99.90
8858;DHT22;4465;50.904;4.696;2022-12-07T01:13:15;5.10;99.90
8858;DHT22;4465;50.904;4.696;2022-12-07T01:15:42;5.20;99.90
8858;DHT22;4465;50.904;4.696;2022-12-07T01:18:14;5.10;99.90
8858;DHT22;4465;50.904;4.696;2022-12-07T01:20:43;5.10;99.90
8858;DHT22;4465;50.904;4.696;2022-12-07T01:23:12;5.10;99.90
8858;DHT22;4465;50.904;4.696;2022-12-07T01:25:38;5.00;99.90
8858;DHT22;4465;50.904;4.696;2022-12-07T01:28:04;5.10;99.90
8858;DHT22;4465;50.904;4.696;2022-12-07T01:30:30;5.00;99.90
8858;DHT22;4465;50.904;4.696;2022-12-07T01:32:58;5.00;99.90
8858;DHT22;4465;50.904;4.696;2022-12-07T01:35:24;4.90;99.90
8858;DHT22;4465;50.904;4.696;2022-12-07T01:37:50;5.00;99.90
8858;DHT22;4465;50.904;4.696;2022-12-07T01:40:16;4.90;99.90
8858;DHT22;4465;50.904;4.696;2022-12-07T01:42:42;4.90;99.90
8858;DHT22;4465;50.904;4.696;2022-12-07T01:47:52;4.90;99.90
8858;DHT22;4465;50.904;4.696;2022-12-07T01:50:20;5.10;99.90
8858;DHT22;4465;50.904;4.696;2022-12-07T01:52:51;4.90;99.90
8858;DHT22;4465;50.904;4.696;2022-12-07T01:55:19;5.00;99.90
8858;DHT22;4465;50.904;4.696;2022-12-07T01:57:49;5.10;99.90
8858;DHT22;4465;50.904;4.696;2022-12-07T02:00:19;5.00;99.90
8858;DHT22;4465;50.904;4.696;2022-12-07T02:03:05;5.00;99.90
8858;DHT22;4465;50.904;4.696;2022-12-07T02:05:37;5.00;99.90
8858;DHT22;4465;50.904;4.696;2022-12-07T02:08:04;5.00;99.90
8858;DHT22;4465;50.904;4.696;2022-12-07T02:10:34;5.00;99.90
8858;DHT22;4465;50.904;4.696;2022-12-07T02:13:06;5.00;99.90
8858;DHT22;4465;50.904;4.696;2022-12-07T02:24:43;5.10;99.90
8858;DHT22;4465;50.904;4.696;2022-12-07T02:27:28;5.10;99.90
8858;DHT22;4465;50.904;4.696;2022-12-07T02:30:09;5.10;99.90
8858;DHT22;4465;50.904;4.696;2022-12-07T02:35:21;5.10;99.90
8858;DHT22;4465;50.904;4.696;2022-12-07T02:40:55;5.00;99.90
8858;DHT22;4465;50.904;4.696;2022-12-07T02:43:28;5.00;99.90
8858;DHT22;4465;50.904;4.696;2022-12-07T02:46:05;5.00;99.90
8858;DHT22;4465;50.904;4.696;2022-12-07T02:48:34;5.00;99.90
8858;DHT22;4465;50.904;4.696;2022-12-07T02:51:00;5.00;99.90
8858;DHT22;4465;50.904;4.696;2022-12-07T02:53:41;5.00;99.90
8858;DHT22;4465;50.904;4.696;2022-12-07T02:56:31;5.00;99.90
8858;DHT22;4465;50.904;4.696;2022-12-07T03:02:26;5.00;99.90
8858;DHT22;4465;50.904;4.696;2022-12-07T03:13:27;5.00;99.90
8858;DHT22;4465;50.904;4.696;2022-12-07T03:16:21;5.00;99.90
8858;DHT22;4465;50.904;4.696;2022-12-07T03:18:53;5.00;99.90
8858;DHT22;4465;50.904;4.696;2022-12-07T03:21:31;5.00;99.90
8858;DHT22;4465;50.904;4.696;2022-12-07T03:24:00;5.00;99.90
8858;DHT22;4465;50.904;4.696;2022-12-07T03:26:38;5.00;99.90
8858;DHT22;4465;50.904;4.696;2022-12-07T03:29:46;5.00;99.90
8858;DHT22;4465;50.904;4.696;2022-12-07T03:32:23;5.00;99.90
8858;DHT22;4465;50.904;4.696;2022-12-07T03:35:10;5.00;99.90
8858;DHT22;4465;50.904;4.696;2022-12-07T03:37:51;5.10;99.90
8858;DHT22;4465;50.904;4.696;2022-12-07T03:40:37;5.00;99.90
8858;DHT22;4465;50.904;4.696;2022-12-07T03:43:05;5.10;99.90
8858;DHT22;4465;50.904;4.696;2022-12-07T03:45:41;5.10;99.90
8858;DHT22;4465;50.904;4.696;2022-12-07T03:48:15;5.10;99.90
8858;DHT22;4465;50.904;4.696;2022-12-07T03:51:26;5.10;99.90
8858;DHT22;4465;50.904;4.696;2022-12-07T03:54:02;5.10;99.90
8858;DHT22;4465;50.904;4.696;2022-12-07T03:56:34;5.20;99.90
8858;DHT22;4465;50.904;4.696;2022-12-07T03:59:00;5.10;99.90
8858;DHT22;4465;50.904;4.696;2022-12-07T04:01:27;5.10;99.90
8858;DHT22;4465;50.904;4.696;2022-12-07T04:03:53;5.10;99.90
8858;DHT22;4465;50.904;4.696;2022-12-07T04:06:19;5.10;99.90
8858;DHT22;4465;50.904;4.696;2022-12-07T04:08:48;5.10;99.90
8858;DHT22;4465;50.904;4.696;2022-12-07T04:11:17;5.10;99.90
8858;DHT22;4465;50.904;4.696;2022-12-07T04:13:43;5.10;99.90
8858;DHT22;4465;50.904;4.696;2022-12-07T04:16:27;5.20;99.90
8858;DHT22;4465;50.904;4.696;2022-12-07T04:18:53;5.10;99.90
8858;DHT22;4465;50.904;4.696;2022-12-07T04:21:19;5.00;99.90
8858;DHT22;4465;50.904;4.696;2022-12-07T04:23:45;5.10;99.90
8858;DHT22;4465;50.904;4.696;2022-12-07T04:26:10;5.00;99.90
8858;DHT22;4465;50.904;4.696;2022-12-07T04:28:36;4.90;99.90
8858;DHT22;4465;50.904;4.696;2022-12-07T04:31:02;4.90;99.90
8858;DHT22;4465;50.904;4.696;2022-12-07T04:33:28;4.90;99.90
8858;DHT22;4465;50.904;4.696;2022-12-07T04:35:55;4.80;99.90
8858;DHT22;4465;50.904;4.696;2022-12-07T04:38:21;4.80;99.90
8858;DHT22;4465;50.904;4.696;2022-12-07T04:40:46;4.70;99.90
8858;DHT22;4465;50.904;4.696;2022-12-07T04:43:13;4.70;99.90
8858;DHT22;4465;50.904;4.696;2022-12-07T04:45:39;4.60;99.90
8858;DHT22;4465;50.904;4.696;2022-12-07T04:48:13;4.60;99.90
8858;DHT22;4465;50.904;4.696;2022-12-07T04:50:39;4.50;99.90
8858;DHT22;4465;50.904;4.696;2022-12-07T04:53:08;4.60;99.90
8858;DHT22;4465;50.904;4.696;2022-12-07T04:55:34;4.40;99.90
8858;DHT22;4465;50.904;4.696;2022-12-07T04:58:00;4.40;99.90
8858;DHT22;4465;50.904;4.696;2022-12-07T05:00:27;4.40;99.90
8858;DHT22;4465;50.904;4.696;2022-12-07T05:02:53;4.30;99.90
8858;DHT22;4465;50.904;4.696;2022-12-07T05:05:21;4.30;99.90
8858;DHT22;4465;50.904;4.696;2022-12-07T05:07:47;4.30;99.90
8858;DHT22;4465;50.904;4.696;2022-12-07T05:10:13;4.20;99.90
8858;DHT22;4465;50.904;4.696;2022-12-07T05:12:42;4.20;99.90
8858;DHT22;4465;50.904;4.696;2022-12-07T05:15:10;4.10;99.90
8858;DHT22;4465;50.904;4.696;2022-12-07T05:17:36;4.10;99.90
8858;DHT22;4465;50.904;4.696;2022-12-07T05:20:04;4.00;99.90
8858;DHT22;4465;50.904;4.696;2022-12-07T05:22:33;4.00;99.90
8858;DHT22;4465;50.904;4.696;2022-12-07T05:25:00;4.00;99.90
8858;DHT22;4465;50.904;4.696;2022-12-07T05:27:28;3.90;99.90
8858;DHT22;4465;50.904;4.696;2022-12-07T05:29:54;3.90;99.90
8858;DHT22;4465;50.904;4.696;2022-12-07T05:32:20;3.90;99.90
8858;DHT22;4465;50.904;4.696;2022-12-07T05:34:48;3.90;99.90
8858;DHT22;4465;50.904;4.696;2022-12-07T05:37:14;3.90;99.90
8858;DHT22;4465;50.904;4.696;2022-12-07T05:39:40;4.00;99.90
8858;DHT22;4465;50.904;4.696;2022-12-07T05:42:10;4.00;99.90
8858;DHT22;4465;50.904;4.696;2022-12-07T05:44:40;4.00;99.90
8858;DHT22;4465;50.904;4.696;2022-12-07T05:47:13;4.10;99.90
8858;DHT22;4465;50.904;4.696;2022-12-07T05:49:40;4.10;99.90
8858;DHT22;4465;50.904;4.696;2022-12-07T05:52:06;4.20;99.90
8858;DHT22;4465;50.904;4.696;2022-12-07T05:54:33;4.20;99.90
8858;DHT22;4465;50.904;4.696;2022-12-07T05:57:01;4.20;99.90
8858;DHT22;4465;50.904;4.696;2022-12-07T05:59:28;4.20;99.90
8858;DHT22;4465;50.904;4.696;2022-12-07T06:04:33;4.30;99.90
8858;DHT22;4465;50.904;4.696;2022-12-07T06:07:00;4.30;99.90
8858;DHT22;4465;50.904;4.696;2022-12-07T06:09:27;4.30;99.90
8858;DHT22;4465;50.904;4.696;2022-12-07T06:11:57;4.30;99.90
8858;DHT22;4465;50.904;4.696;2022-12-07T06:14:41;4.30;99.90
8858;DHT22;4465;50.904;4.696;2022-12-07T06:17:07;4.50;99.90
8858;DHT22;4465;50.904;4.696;2022-12-07T06:19:42;4.40;99.90
8858;DHT22;4465;50.904;4.696;2022-12-07T06:22:09;4.50;99.90
8858;DHT22;4465;50.904;4.696;2022-12-07T06:24:37;4.60;99.90
8858;DHT22;4465;50.904;4.696;2022-12-07T06:27:04;4.50;99.90
8858;DHT22;4465;50.904;4.696;2022-12-07T06:29:32;4.60;99.90
8858;DHT22;4465;50.904;4.696;2022-12-07T06:31:59;4.50;99.90
8858;DHT22;4465;50.904;4.696;2022-12-07T06:34:26;4.60;99.90
8858;DHT22;4465;50.904;4.696;2022-12-07T06:36:54;4.50;99.90
8858;DHT22;4465;50.904;4.696;2022-12-07T06:39:22;4.60;99.90
8858;DHT22;4465;50.904;4.696;2022-12-07T06:41:51;4.60;99.90
8858;DHT22;4465;50.904;4.696;2022-12-07T06:44:18;4.60;99.90
8858;DHT22;4465;50.904;4.696;2022-12-07T06:46:46;4.60;99.90
8858;DHT22;4465;50.904;4.696;2022-12-07T06:49:13;4.60;99.90
8858;DHT22;4465;50.904;4.696;2022-12-07T06:51:39;4.60;99.90
8858;DHT22;4465;50.904;4.696;2022-12-07T06:54:09;4.60;99.90
8858;DHT22;4465;50.904;4.696;2022-12-07T06:56:35;4.60;99.90
8858;DHT22;4465;50.904;4.696;2022-12-07T06:59:02;4.60;99.90
8858;DHT22;4465;50.904;4.696;2022-12-07T07:01:29;4.60;99.90
8858;DHT22;4465;50.904;4.696;2022-12-07T07:03:57;4.60;99.90
8858;DHT22;4465;50.904;4.696;2022-12-07T07:06:23;4.60;99.90
8858;DHT22;4465;50.904;4.696;2022-12-07T07:08:49;4.60;99.90
8858;DHT22;4465;50.904;4.696;2022-12-07T07:11:15;4.60;99.90
8858;DHT22;4465;50.904;4.696;2022-12-07T07:13:41;4.60;99.90
8858;DHT22;4465;50.904;4.696;2022-12-07T07:16:07;4.60;99.90
8858;DHT22;4465;50.904;4.696;2022-12-07T07:18:33;4.60;99.90
8858;DHT22;4465;50.904;4.696;2022-12-07T07:21:00;4.60;99.90
8858;DHT22;4465;50.904;4.696;2022-12-07T07:23:29;4.70;99.90
8858;DHT22;4465;50.904;4.696;2022-12-07T07:25:55;4.60;99.90
8858;DHT22;4465;50.904;4.696;2022-12-07T07:28:22;4.60;99.90
8858;DHT22;4465;50.904;4.696;2022-12-07T07:30:48;4.70;99.90
8858;DHT22;4465;50.904;4.696;2022-12-07T07:33:14;4.60;99.90
8858;DHT22;4465;50.904;4.696;2022-12-07T07:35:43;4.60;99.90
8858;DHT22;4465;50.904;4.696;2022-12-07T07:38:09;4.80;99.90
8858;DHT22;4465;50.904;4.696;2022-12-07T07:40:35;4.80;99.90
8858;DHT22;4465;50.904;4.696;2022-12-07T07:43:01;4.70;99.90
8858;DHT22;4465;50.904;4.696;2022-12-07T07:45:27;4.80;99.90
8858;DHT22;4465;50.904;4.696;2022-12-07T07:47:53;4.80;99.90
8858;DHT22;4465;50.904;4.696;2022-12-07T07:50:22;4.70;99.90
8858;DHT22;4465;50.904;4.696;2022-12-07T07:52:48;4.70;99.90
8858;DHT22;4465;50.904;4.696;2022-12-07T07:55:14;4.80;99.90
8858;DHT22;4465;50.904;4.696;2022-12-07T07:57:41;4.70;99.90
8858;DHT22;4465;50.904;4.696;2022-12-07T08:00:10;4.70;99.90
8858;DHT22;4465;50.904;4.696;2022-12-07T08:02:36;4.70;99.90
8858;DHT22;4465;50.904;4.696;2022-12-07T08:05:06;4.70;99.90
8858;DHT22;4465;50.904;4.696;2022-12-07T08:07:34;4.70;99.90
8858;DHT22;4465;50.904;4.696;2022-12-07T08:10:00;4.70;99.90
8858;DHT22;4465;50.904;4.696;2022-12-07T08:12:28;4.60;99.90
8858;DHT22;4465;50.904;4.696;2022-12-07T08:14:54;4.70;99.90
8858;DHT22;4465;50.904;4.696;2022-12-07T08:17:23;4.60;99.90
8858;DHT22;4465;50.904;4.696;2022-12-07T08:19:48;4.60;99.90
8858;DHT22;4465;50.904;4.696;2022-12-07T08:22:14;4.50;99.90
8858;DHT22;4465;50.904;4.696;2022-12-07T08:24:43;4.60;99.90
8858;DHT22;4465;50.904;4.696;2022-12-07T08:27:11;4.50;99.90
8858;DHT22;4465;50.904;4.696;2022-12-07T08:29:37;4.50;99.90
8858;DHT22;4465;50.904;4.696;2022-12-07T08:32:03;4.50;99.90
8858;DHT22;4465;50.904;4.696;2022-12-07T08:34:29;4.50;99.90
8858;DHT22;4465;50.904;4.696;2022-12-07T08:36:55;4.50;99.90
8858;DHT22;4465;50.904;4.696;2022-12-07T08:39:22;4.50;99.90
8858;DHT22;4465;50.904;4.696;2022-12-07T08:41:48;4.60;99.90
8858;DHT22;4465;50.904;4.696;2022-12-07T08:44:14;4.60;99.90
8858;DHT22;4465;50.904;4.696;2022-12-07T08:46:53;4.60;99.90
8858;DHT22;4465;50.904;4.696;2022-12-07T08:49:30;4.70;99.90
8858;DHT22;4465;50.904;4.696;2022-12-07T08:51:59;4.80;99.90
8858;DHT22;4465;50.904;4.696;2022-12-07T08:54:25;4.80;99.90
8858;DHT22;4465;50.904;4.696;2022-12-07T08:56:55;4.90;99.90
8858;DHT22;4465;50.904;4.696;2022-12-07T08:59:22;5.00;99.90
8858;DHT22;4465;50.904;4.696;2022-12-07T09:01:48;5.10;99.90
8858;DHT22;4465;50.904;4.696;2022-12-07T09:04:16;5.20;99.90
8858;DHT22;4465;50.904;4.696;2022-12-07T09:06:46;5.20;99.90
8858;DHT22;4465;50.904;4.696;2022-12-07T09:09:14;5.30;99.90
8858;DHT22;4465;50.904;4.696;2022-12-07T09:11:43;5.40;99.90
8858;DHT22;4465;50.904;4.696;2022-12-07T09:14:11;5.40;99.90
8858;DHT22;4465;50.904;4.696;2022-12-07T09:16:38;5.50;99.90
8858;DHT22;4465;50.904;4.696;2022-12-07T09:19:04;5.60;99.90
8858;DHT22;4465;50.904;4.696;2022-12-07T09:21:32;5.50;99.90
8858;DHT22;4465;50.904;4.696;2022-12-07T09:23:58;5.50;99.90
8858;DHT22;4465;50.904;4.696;2022-12-07T09:26:25;5.60;99.90
8858;DHT22;4465;50.904;4.696;2022-12-07T09:28:51;5.60;99.90
8858;DHT22;4465;50.904;4.696;2022-12-07T09:31:17;5.60;99.90
8858;DHT22;4465;50.904;4.696;2022-12-07T09:33:43;5.60;99.90
8858;DHT22;4465;50.904;4.696;2022-12-07T09:36:09;5.60;99.90
8858;DHT22;4465;50.904;4.696;2022-12-07T09:38:35;5.70;99.90
8858;DHT22;4465;50.904;4.696;2022-12-07T09:41:06;5.60;99.90
8858;DHT22;4465;50.904;4.696;2022-12-07T09:43:35;5.60;99.90
8858;DHT22;4465;50.904;4.696;2022-12-07T09:46:02;5.70;99.90
8858;DHT22;4465;50.904;4.696;2022-12-07T09:48:36;5.80;99.90
8858;DHT22;4465;50.904;4.696;2022-12-07T09:51:20;5.80;99.90
8858;DHT22;4465;50.904;4.696;2022-12-07T09:53:46;5.90;99.90
8858;DHT22;4465;50.904;4.696;2022-12-07T09:56:14;5.90;99.90
8858;DHT22;4465;50.904;4.696;2022-12-07T09:58:40;6.00;99.90
8858;DHT22;4465;50.904;4.696;2022-12-07T10:03:34;6.00;99.90
8858;DHT22;4465;50.904;4.696;2022-12-07T10:06:00;6.10;99.90
8858;DHT22;4465;50.904;4.696;2022-12-07T10:08:26;6.20;99.90
8858;DHT22;4465;50.904;4.696;2022-12-07T10:10:55;6.20;99.90
8858;DHT22;4465;50.904;4.696;2022-12-07T10:13:45;6.20;99.90
8858;DHT22;4465;50.904;4.696;2022-12-07T10:16:39;6.20;99.90
8858;DHT22;4465;50.904;4.696;2022-12-07T10:19:32;6.30;99.90
8858;DHT22;4465;50.904;4.696;2022-12-07T10:22:13;6.30;99.90
8858;DHT22;4465;50.904;4.696;2022-12-07T10:24:40;6.50;99.90
8858;DHT22;4465;50.904;4.696;2022-12-07T10:27:31;6.60;99.90
8858;DHT22;4465;50.904;4.696;2022-12-07T10:29:57;6.70;99.90
8858;DHT22;4465;50.904;4.696;2022-12-07T10:32:35;6.80;99.90
8858;DHT22;4465;50.904;4.696;2022-12-07T10:37:47;6.90;99.90
8858;DHT22;4465;50.904;4.696;2022-12-07T10:40:31;6.90;99.90
8858;DHT22;4465;50.904;4.696;2022-12-07T10:48:40;7.10;99.90
8858;DHT22;4465;50.904;4.696;2022-12-07T10:53:48;7.30;99.90
8858;DHT22;4465;50.904;4.696;2022-12-07T11:01:51;7.40;99.90
8858;DHT22;4465;50.904;4.696;2022-12-07T11:07:35;7.40;99.90
8858;DHT22;4465;50.904;4.696;2022-12-07T11:13:16;7.40;99.90
8858;DHT22;4465;50.904;4.696;2022-12-07T11:21:17;7.20;99.90
8858;DHT22;4465;50.904;4.696;2022-12-07T11:26:57;7.10;99.90
8858;DHT22;4465;50.904;4.696;2022-12-07T11:32:13;7.10;99.90
8858;DHT22;4465;50.904;4.696;2022-12-07T11:37:39;7.30;99.90
8858;DHT22;4465;50.904;4.696;2022-12-07T11:40:37;7.40;99.90
8858;DHT22;4465;50.904;4.696;2022-12-07T11:43:21;7.60;99.90
8858;DHT22;4465;50.904;4.696;2022-12-07T11:46:05;7.80;99.90
8858;DHT22;4465;50.904;4.696;2022-12-07T11:48:58;7.80;99.90
8858;DHT22;4465;50.904;4.696;2022-12-07T11:51:28;7.80;99.90
8858;DHT22;4465;50.904;4.696;2022-12-07T11:54:03;7.80;99.90
8858;DHT22;4465;50.904;4.696;2022-12-07T11:56:35;7.90;99.90
8858;DHT22;4465;50.904;4.696;2022-12-07T11:59:12;7.90;99.90
8858;DHT22;4465;50.904;4.696;2022-12-07T12:01:53;7.90;99.90
8858;DHT22;4465;50.904;4.696;2022-12-07T12:06:55;8.10;99.90
8858;DHT22;4465;50.904;4.696;2022-12-07T12:09:53;8.20;99.90
8858;DHT22;4465;50.904;4.696;2022-12-07T12:12:52;8.30;99.90
8858;DHT22;4465;50.904;4.696;2022-12-07T12:16:01;8.40;99.90
8858;DHT22;4465;50.904;4.696;2022-12-07T12:18:36;8.40;99.90
8858;DHT22;4465;50.904;4.696;2022-12-07T12:21:14;8.40;99.90
8858;DHT22;4465;50.904;4.696;2022-12-07T12:23:44;8.30;99.90
8858;DHT22;4465;50.904;4.696;2022-12-07T12:26:23;8.30;99.90
8858;DHT22;4465;50.904;4.696;2022-12-07T12:28:54;8.20;99.90
8858;DHT22;4465;50.904;4.696;2022-12-07T12:33:54;8.20;99.90
8858;DHT22;4465;50.904;4.696;2022-12-07T12:47:00;8.00;99.90
8858;DHT22;4465;50.904;4.696;2022-12-07T12:54:39;8.10;99.90
8858;DHT22;4465;50.904;4.696;2022-12-07T12:57:29;8.40;99.90
8858;DHT22;4465;50.904;4.696;2022-12-07T12:59:56;8.70;99.90
8858;DHT22;4465;50.904;4.696;2022-12-07T13:13:00;9.60;99.90
8858;DHT22;4465;50.904;4.696;2022-12-07T13:15:40;9.70;99.90
8858;DHT22;4465;50.904;4.696;2022-12-07T13:29:10;9.80;99.90
8858;DHT22;4465;50.904;4.696;2022-12-07T13:31:57;9.80;99.90
8858;DHT22;4465;50.904;4.696;2022-12-07T13:34:32;9.80;99.90
8858;DHT22;4465;50.904;4.696;2022-12-07T13:36:59;9.80;99.90
8858;DHT22;4465;50.904;4.696;2022-12-07T13:39:26;9.90;99.90
8858;DHT22;4465;50.904;4.696;2022-12-07T13:41:56;9.80;99.90
8858;DHT22;4465;50.904;4.696;2022-12-07T13:44:25;9.70;99.90
8858;DHT22;4465;50.904;4.696;2022-12-07T13:49:26;9.40;99.90
8858;DHT22;4465;50.904;4.696;2022-12-07T13:52:08;9.20;99.90
8858;DHT22;4465;50.904;4.696;2022-12-07T13:55:29;9.00;99.90
8858;DHT22;4465;50.904;4.696;2022-12-07T13:57:30;8.80;99.90
8858;DHT22;4465;50.904;4.696;2022-12-07T13:59:57;8.60;99.90
8858;DHT22;4465;50.904;4.696;2022-12-07T14:02:33;8.50;99.90
8858;DHT22;4465;50.904;4.696;2022-12-07T14:05:14;8.50;99.90
8858;DHT22;4465;50.904;4.696;2022-12-07T14:13:35;8.20;99.90
8858;DHT22;4465;50.904;4.696;2022-12-07T14:16:02;8.20;99.90
8858;DHT22;4465;50.904;4.696;2022-12-07T14:18:38;8.10;99.90
8858;DHT22;4465;50.904;4.696;2022-12-07T14:21:06;8.00;99.90
8858;DHT22;4465;50.904;4.696;2022-12-07T14:23:32;7.90;99.90
8858;DHT22;4465;50.904;4.696;2022-12-07T14:26:20;7.80;99.90
8858;DHT22;4465;50.904;4.696;2022-12-07T14:28:46;7.80;99.90
8858;DHT22;4465;50.904;4.696;2022-12-07T14:31:21;7.70;99.90
8858;DHT22;4465;50.904;4.696;2022-12-07T14:33:49;7.70;99.90
8858;DHT22;4465;50.904;4.696;2022-12-07T14:36:15;7.60;99.90
8858;DHT22;4465;50.904;4.696;2022-12-07T14:38:41;7.60;99.90
8858;DHT22;4465;50.904;4.696;2022-12-07T14:41:13;7.60;99.90
8858;DHT22;4465;50.904;4.696;2022-12-07T14:43:59;7.50;99.90
8858;DHT22;4465;50.904;4.696;2022-12-07T14:46:25;7.50;99.90
8858;DHT22;4465;50.904;4.696;2022-12-07T14:48:52;7.40;99.90
8858;DHT22;4465;50.904;4.696;2022-12-07T14:51:18;7.30;99.90
8858;DHT22;4465;50.904;4.696;2022-12-07T14:53:48;7.30;99.90
8858;DHT22;4465;50.904;4.696;2022-12-07T14:56:14;7.30;99.90
8858;DHT22;4465;50.904;4.696;2022-12-07T14:58:40;7.20;99.90
8858;DHT22;4465;50.904;4.696;2022-12-07T15:01:07;7.20;99.90
8858;DHT22;4465;50.904;4.696;2022-12-07T15:03:33;7.10;99.90
8858;DHT22;4465;50.904;4.696;2022-12-07T15:06:00;7.10;99.90
8858;DHT22;4465;50.904;4.696;2022-12-07T15:08:29;7.00;99.90
8858;DHT22;4465;50.904;4.696;2022-12-07T15:10:58;7.00;99.90
8858;DHT22;4465;50.904;4.696;2022-12-07T15:13:24;7.00;99.90
8858;DHT22;4465;50.904;4.696;2022-12-07T15:16:14;6.80;99.90
8858;DHT22;4465;50.904;4.696;2022-12-07T15:18:44;6.80;99.90
8858;DHT22;4465;50.904;4.696;2022-12-07T15:21:14;6.80;99.90
8858;DHT22;4465;50.904;4.696;2022-12-07T15:23:46;6.70;99.90
8858;DHT22;4465;50.904;4.696;2022-12-07T15:26:15;6.70;99.90
8858;DHT22;4465;50.904;4.696;2022-12-07T15:28:45;6.60;99.90
8858;DHT22;4465;50.904;4.696;2022-12-07T15:31:16;6.50;99.90
8858;DHT22;4465;50.904;4.696;2022-12-07T15:33:44;6.50;99.90
8858;DHT22;4465;50.904;4.696;2022-12-07T15:36:22;6.40;99.90
8858;DHT22;4465;50.904;4.696;2022-12-07T15:38:51;6.30;99.90
8858;DHT22;4465;50.904;4.696;2022-12-07T15:41:18;6.20;99.90
8858;DHT22;4465;50.904;4.696;2022-12-07T15:43:47;6.20;99.90
8858;DHT22;4465;50.904;4.696;2022-12-07T15:46:37;6.10;99.90
8858;DHT22;4465;50.904;4.696;2022-12-07T15:49:11;6.10;99.90
8858;DHT22;4465;50.904;4.696;2022-12-07T15:51:37;6.00;99.90
8858;DHT22;4465;50.904;4.696;2022-12-07T15:54:06;6.00;99.90
8858;DHT22;4465;50.904;4.696;2022-12-07T15:56:37;6.00;99.90
8858;DHT22;4465;50.904;4.696;2022-12-07T15:59:03;6.00;99.90
8858;DHT22;4465;50.904;4.696;2022-12-07T16:01:31;6.00;99.90
8858;DHT22;4465;50.904;4.696;2022-12-07T16:03:58;6.10;99.90
8858;DHT22;4465;50.904;4.696;2022-12-07T16:06:25;5.90;99.90
8858;DHT22;4465;50.904;4.696;2022-12-07T16:08:51;5.90;99.90
8858;DHT22;4465;50.904;4.696;2022-12-07T16:11:18;5.90;99.90
8858;DHT22;4465;50.904;4.696;2022-12-07T16:13:44;5.90;99.90
8858;DHT22;4465;50.904;4.696;2022-12-07T16:16:15;5.90;99.90
8858;DHT22;4465;50.904;4.696;2022-12-07T16:18:43;5.90;99.90
8858;DHT22;4465;50.904;4.696;2022-12-07T16:21:09;5.90;99.90
8858;DHT22;4465;50.904;4.696;2022-12-07T16:23:35;5.90;99.90
8858;DHT22;4465;50.904;4.696;2022-12-07T16:26:11;5.90;99.90
8858;DHT22;4465;50.904;4.696;2022-12-07T16:28:37;5.90;99.90
8858;DHT22;4465;50.904;4.696;2022-12-07T16:31:09;5.90;99.90
8858;DHT22;4465;50.904;4.696;2022-12-07T16:33:36;6.00;99.90
8858;DHT22;4465;50.904;4.696;2022-12-07T16:36:05;6.00;99.90
8858;DHT22;4465;50.904;4.696;2022-12-07T16:38:32;5.90;99.90
8858;DHT22;4465;50.904;4.696;2022-12-07T16:40:58;5.90;99.90
8858;DHT22;4465;50.904;4.696;2022-12-07T16:43:25;5.90;99.90
8858;DHT22;4465;50.904;4.696;2022-12-07T16:45:54;5.90;99.90
8858;DHT22;4465;50.904;4.696;2022-12-07T16:48:20;5.90;99.90
8858;DHT22;4465;50.904;4.696;2022-12-07T16:50:46;5.90;99.90
8858;DHT22;4465;50.904;4.696;2022-12-07T16:53:14;5.80;99.90
8858;DHT22;4465;50.904;4.696;2022-12-07T16:55:45;5.80;99.90
8858;DHT22;4465;50.904;4.696;2022-12-07T16:58:13;5.80;99.90
8858;DHT22;4465;50.904;4.696;2022-12-07T17:00:40;5.80;99.90
8858;DHT22;4465;50.904;4.696;2022-12-07T17:03:07;5.80;99.90
8858;DHT22;4465;50.904;4.696;2022-12-07T17:05:37;5.80;99.90
8858;DHT22;4465;50.904;4.696;2022-12-07T17:08:04;5.70;99.90
8858;DHT22;4465;50.904;4.696;2022-12-07T17:10:34;5.80;99.90
8858;DHT22;4465;50.904;4.696;2022-12-07T17:13:02;5.80;99.90
8858;DHT22;4465;50.904;4.696;2022-12-07T17:15:28;5.80;99.90
8858;DHT22;4465;50.904;4.696;2022-12-07T17:17:56;5.80;99.90
8858;DHT22;4465;50.904;4.696;2022-12-07T17:20:25;5.80;99.90
8858;DHT22;4465;50.904;4.696;2022-12-07T17:22:54;5.70;99.90
8858;DHT22;4465;50.904;4.696;2022-12-07T17:25:20;5.70;99.90
8858;DHT22;4465;50.904;4.696;2022-12-07T17:27:46;5.70;99.90
8858;DHT22;4465;50.904;4.696;2022-12-07T17:30:15;5.70;99.90
8858;DHT22;4465;50.904;4.696;2022-12-07T17:32:41;5.70;99.90
8858;DHT22;4465;50.904;4.696;2022-12-07T17:35:07;5.70;99.90
8858;DHT22;4465;50.904;4.696;2022-12-07T17:37:36;5.70;99.90
8858;DHT22;4465;50.904;4.696;2022-12-07T17:40:02;5.80;99.90
8858;DHT22;4465;50.904;4.696;2022-12-07T17:42:29;5.70;99.90
8858;DHT22;4465;50.904;4.696;2022-12-07T17:45:09;5.70;99.90
8858;DHT22;4465;50.904;4.696;2022-12-07T17:47:39;5.70;99.90
8858;DHT22;4465;50.904;4.696;2022-12-07T17:50:06;5.70;99.90
8858;DHT22;4465;50.904;4.696;2022-12-07T17:52:33;5.70;99.90
8858;DHT22;4465;50.904;4.696;2022-12-07T17:55:18;5.70;99.90
8858;DHT22;4465;50.904;4.696;2022-12-07T17:57:44;5.70;99.90
8858;DHT22;4465;50.904;4.696;2022-12-07T18:00:11;5.60;99.90
8858;DHT22;4465;50.904;4.696;2022-12-07T18:02:39;5.70;99.90
8858;DHT22;4465;50.904;4.696;2022-12-07T18:05:06;5.70;99.90
8858;DHT22;4465;50.904;4.696;2022-12-07T18:07:33;5.60;99.90
8858;DHT22;4465;50.904;4.696;2022-12-07T18:09:59;5.60;99.90
8858;DHT22;4465;50.904;4.696;2022-12-07T18:12:27;5.60;99.90
8858;DHT22;4465;50.904;4.696;2022-12-07T18:14:53;5.60;99.90
8858;DHT22;4465;50.904;4.696;2022-12-07T18:17:20;5.60;99.90
8858;DHT22;4465;50.904;4.696;2022-12-07T18:19:46;5.70;99.90
8858;DHT22;4465;50.904;4.696;2022-12-07T18:22:12;5.60;99.90
8858;DHT22;4465;50.904;4.696;2022-12-07T18:24:38;5.60;99.90
8858;DHT22;4465;50.904;4.696;2022-12-07T18:27:05;5.60;99.90
8858;DHT22;4465;50.904;4.696;2022-12-07T18:29:33;5.60;99.90
8858;DHT22;4465;50.904;4.696;2022-12-07T18:32:00;5.60;99.90
8858;DHT22;4465;50.904;4.696;2022-12-07T18:34:26;5.60;99.90
8858;DHT22;4465;50.904;4.696;2022-12-07T18:36:56;5.60;99.90
8858;DHT22;4465;50.904;4.696;2022-12-07T18:39:22;5.50;99.90